createdAt,value
2022-10-04T00:01:49.630Z,101210.59
2022-10-04T00:04:32.406Z,101242.81
2022-10-04T00:07:03.870Z,101244.63
2022-10-04T00:09:36.111Z,101245.56
2022-10-04T00:12:04.785Z,101226.44
2022-10-04T00:14:39.372Z,101223.97
2022-10-04T00:17:12.283Z,101227.50
2022-10-04T00:19:57.580Z,101227.38
2022-10-04T00:22:25.453Z,101225.69
2022-10-04T00:25:01.097Z,101225.94
2022-10-04T00:27:28.827Z,101246.06
2022-10-04T00:30:04.218Z,101233.88
2022-10-04T00:32:39.658Z,101233.06
2022-10-04T00:35:24.605Z,101233.19
2022-10-04T00:38:15.708Z,101227.19
2022-10-04T00:40:50.961Z,101211.50
2022-10-04T00:43:25.973Z,101197.75
2022-10-04T00:45:59.029Z,101215.03
2022-10-04T00:48:31.826Z,101215.84
2022-10-04T00:51:20.248Z,101208.81
2022-10-04T00:53:49.844Z,101213.03
2022-10-04T00:56:26.243Z,101200.31
2022-10-04T00:58:57.506Z,101223.00
2022-10-04T01:01:28.598Z,101228.38
2022-10-04T01:03:58.380Z,101214.47
2022-10-04T01:06:26.553Z,101224.19
2022-10-04T01:09:04.757Z,101220.81
2022-10-04T01:11:37.722Z,101186.97
2022-10-04T01:14:11.459Z,101187.09
2022-10-04T01:16:38.434Z,101192.44
2022-10-04T01:19:24.516Z,101221.22
2022-10-04T01:22:09.184Z,101224.75
2022-10-04T01:24:40.901Z,101220.44
2022-10-04T01:27:33.159Z,101219.53
2022-10-04T01:30:03.161Z,101187.34
2022-10-04T01:32:31.633Z,101170.66
2022-10-04T01:34:59.022Z,101185.41
2022-10-04T01:37:26.279Z,101187.22
2022-10-04T01:39:53.159Z,101183.84
2022-10-04T01:42:29.989Z,101159.47
2022-10-04T01:45:12.404Z,101183.88
2022-10-04T01:47:45.378Z,101186.41
2022-10-04T01:50:28.262Z,101172.47
2022-10-04T01:53:01.517Z,101187.34
2022-10-04T01:55:35.993Z,101177.72
2022-10-04T01:58:11.303Z,101161.97
2022-10-04T02:00:45.273Z,101172.97
2022-10-04T02:03:20.877Z,101169.34
2022-10-04T02:06:00.733Z,101151.09
2022-10-04T02:08:30.951Z,101178.00
2022-10-04T02:10:58.325Z,101171.81
2022-10-04T02:13:29.478Z,101174.44
2022-10-04T02:15:58.584Z,101147.50
2022-10-04T02:18:27.072Z,101162.09
2022-10-04T02:20:55.079Z,101165.53
2022-10-04T02:23:24.687Z,101157.63
2022-10-04T02:25:52.050Z,101155.88
2022-10-04T02:28:18.961Z,101144.47
2022-10-04T02:31:09.692Z,101152.34
2022-10-04T02:33:43.566Z,101147.78
2022-10-04T02:36:11.086Z,101144.22
2022-10-04T02:39:08.151Z,101141.56
2022-10-04T02:41:48.724Z,101146.00
2022-10-04T02:44:42.559Z,101142.47
2022-10-04T02:47:29.780Z,101134.44
2022-10-04T02:50:06.834Z,101143.97
2022-10-04T02:52:44.631Z,101149.91
2022-10-04T02:55:24.713Z,101146.31
2022-10-04T02:57:52.546Z,101156.78
2022-10-04T03:00:28.960Z,101158.75
2022-10-04T03:03:29.988Z,101158.75
2022-10-04T03:06:04.581Z,101155.97
2022-10-04T03:08:43.431Z,101147.00
2022-10-04T03:11:12.408Z,101111.34
2022-10-04T03:13:46.877Z,101129.69
2022-10-04T03:16:13.972Z,101132.50
2022-10-04T03:18:42.266Z,101149.31
2022-10-04T03:21:12.617Z,101148.69
2022-10-04T03:23:40.625Z,101140.72
2022-10-04T03:26:24.232Z,101146.78
2022-10-04T03:28:51.193Z,101146.16
2022-10-04T03:31:20.019Z,101136.63
2022-10-04T03:33:47.765Z,101132.25
2022-10-04T03:36:18.832Z,101106.16
2022-10-04T03:38:48.426Z,101123.44
2022-10-04T03:41:16.732Z,101120.81
2022-10-04T03:43:46.754Z,101128.59
2022-10-04T03:46:14.579Z,101118.84
2022-10-04T03:48:50.156Z,101131.09
2022-10-04T03:51:21.393Z,101125.00
2022-10-04T03:53:59.744Z,101119.72
2022-10-04T03:56:33.586Z,101130.34
2022-10-04T03:59:04.122Z,101118.91
2022-10-04T04:01:44.393Z,101118.81
2022-10-04T04:04:13.877Z,101123.09
2022-10-04T04:07:01.449Z,101123.03
2022-10-04T04:09:43.749Z,101117.59
2022-10-04T04:12:17.070Z,101091.47
2022-10-04T04:14:46.849Z,101115.63
2022-10-04T04:17:33.921Z,101104.16
2022-10-04T04:20:07.691Z,101102.97
2022-10-04T04:22:36.307Z,101078.50
2022-10-04T04:25:08.320Z,101107.13
2022-10-04T04:27:39.891Z,101101.06
2022-10-04T04:30:09.075Z,101107.22
2022-10-04T04:32:40.521Z,101108.22
2022-10-04T04:35:24.697Z,101117.88
2022-10-04T04:38:19.563Z,101105.59
2022-10-04T04:40:46.415Z,101105.63
2022-10-04T04:43:20.097Z,101101.31
2022-10-04T04:46:02.974Z,101099.59
2022-10-04T04:48:36.731Z,101098.34
2022-10-04T04:51:04.427Z,101077.44
2022-10-04T04:53:31.256Z,101070.31
2022-10-04T04:56:04.920Z,101095.47
2022-10-04T04:58:42.481Z,101102.56
2022-10-04T05:01:21.516Z,101092.81
2022-10-04T05:04:14.172Z,101099.72
2022-10-04T05:06:49.164Z,101096.16
2022-10-04T05:09:28.802Z,101101.25
2022-10-04T05:12:03.815Z,101094.25
2022-10-04T05:14:31.746Z,101110.09
2022-10-04T05:16:58.366Z,101106.69
2022-10-04T05:19:30.422Z,101099.00
2022-10-04T05:21:59.910Z,101112.34
2022-10-04T05:24:36.583Z,101110.63
2022-10-04T05:27:07.687Z,101106.94
2022-10-04T05:29:38.253Z,101099.16
2022-10-04T05:32:07.538Z,101112.16
2022-10-04T05:34:44.429Z,101112.38
2022-10-04T05:37:30.881Z,101121.31
2022-10-04T05:40:13.819Z,101108.31
2022-10-04T05:42:45.506Z,101121.53
2022-10-04T05:45:23.444Z,101108.41
2022-10-04T05:47:52.482Z,101108.47
2022-10-04T05:50:41.897Z,101115.53
2022-10-04T05:53:34.512Z,101113.63
2022-10-04T05:56:42.722Z,101121.41
2022-10-04T05:59:23.824Z,101112.56
2022-10-04T06:02:25.094Z,101108.91
2022-10-04T06:05:15.964Z,101114.97
2022-10-04T06:07:49.378Z,101121.09
2022-10-04T06:10:15.851Z,101128.84
2022-10-04T06:13:20.161Z,101132.41
2022-10-04T06:16:09.735Z,101144.56
2022-10-04T06:18:47.280Z,101134.03
2022-10-04T06:21:24.241Z,101135.56
2022-10-04T06:24:10.485Z,101128.41
2022-10-04T06:27:21.615Z,101145.88
2022-10-04T06:30:04.122Z,101144.91
2022-10-04T06:33:18.707Z,101141.34
2022-10-04T06:36:01.902Z,101142.25
2022-10-04T06:39:04.536Z,101149.28
2022-10-04T06:42:02.479Z,101144.06
2022-10-04T06:44:38.200Z,101125.00
2022-10-04T06:47:35.370Z,101123.22
2022-10-04T06:50:30.772Z,101151.78
2022-10-04T06:53:21.221Z,101145.47
2022-10-04T06:56:02.996Z,101153.28
2022-10-04T06:58:29.962Z,101138.22
2022-10-04T07:01:23.450Z,101119.00
2022-10-04T07:04:13.129Z,101126.38
2022-10-04T07:07:24.461Z,101129.53
2022-10-04T07:10:24.571Z,101128.34
2022-10-04T07:13:12.878Z,101105.44
2022-10-04T07:15:54.203Z,101099.59
2022-10-04T07:18:26.912Z,101100.22
2022-10-04T07:21:05.547Z,101117.53
2022-10-04T07:23:39.047Z,101079.72
2022-10-04T07:26:16.774Z,101111.91
2022-10-04T07:29:04.041Z,101106.00
2022-10-04T07:31:36.877Z,101100.16
2022-10-04T07:34:11.976Z,101117.19
2022-10-04T07:36:50.658Z,101123.41
2022-10-04T07:39:21.880Z,101106.00
2022-10-04T07:41:53.552Z,101123.09
2022-10-04T07:44:36.685Z,101127.34
2022-10-04T07:47:20.191Z,101119.81
2022-10-04T07:49:49.508Z,101119.31
2022-10-04T07:52:49.376Z,101132.16
2022-10-04T07:55:22.000Z,101117.13
2022-10-04T07:58:07.329Z,101133.94
2022-10-04T08:00:49.612Z,101130.63
2022-10-04T08:03:25.148Z,101144.91
2022-10-04T08:06:11.493Z,101152.19
2022-10-04T08:08:41.002Z,101143.19
2022-10-04T08:11:52.214Z,101142.13
2022-10-04T08:14:27.777Z,101119.91
2022-10-04T08:17:20.786Z,101136.25
2022-10-04T08:20:04.379Z,101126.16
2022-10-04T08:22:39.885Z,101134.56
2022-10-04T08:25:21.792Z,101134.34
2022-10-04T08:28:15.386Z,101138.50
2022-10-04T08:31:21.563Z,101139.00
2022-10-04T08:34:02.009Z,101126.22
2022-10-04T08:36:51.924Z,101127.06
2022-10-04T08:39:48.690Z,101127.63
2022-10-04T08:42:48.517Z,101125.47
2022-10-04T08:45:49.272Z,101131.31
2022-10-04T08:48:52.729Z,101134.63
2022-10-04T08:51:54.711Z,101130.38
2022-10-04T08:54:40.805Z,101123.97
2022-10-04T08:57:43.806Z,101127.13
2022-10-04T09:00:38.158Z,101125.50
2022-10-04T09:03:24.671Z,101122.72
2022-10-04T09:06:09.687Z,101125.41
2022-10-04T09:09:13.765Z,101122.47
2022-10-04T09:11:43.306Z,101114.41
2022-10-04T09:14:29.230Z,101119.16
2022-10-04T09:17:22.659Z,101088.44
2022-10-04T09:20:36.826Z,101117.06
2022-10-04T09:23:20.938Z,101132.59
2022-10-04T09:26:33.236Z,101125.25
2022-10-04T09:29:30.789Z,101126.25
2022-10-04T09:32:23.441Z,101121.16
2022-10-04T09:35:17.905Z,101120.00
2022-10-04T09:38:22.129Z,101121.22
2022-10-04T09:41:23.847Z,101109.53
2022-10-04T09:44:24.144Z,101106.91
2022-10-04T09:46:57.543Z,101103.91
2022-10-04T09:49:36.880Z,101094.28
2022-10-04T09:52:17.232Z,101113.03
2022-10-04T09:55:05.261Z,101105.84
2022-10-04T09:58:01.887Z,101094.47
2022-10-04T10:00:38.463Z,101111.66
2022-10-04T10:03:23.676Z,101102.78
2022-10-04T10:06:12.222Z,101103.75
2022-10-04T10:08:50.681Z,101102.63
2022-10-04T10:12:01.143Z,101106.06
2022-10-04T10:14:30.437Z,101101.13
2022-10-04T10:17:23.870Z,101099.16
2022-10-04T10:20:18.280Z,101104.16
2022-10-04T10:23:16.925Z,101094.22
2022-10-04T10:26:01.545Z,101093.31
2022-10-04T10:28:34.227Z,101106.84
2022-10-04T10:31:32.330Z,101105.97
2022-10-04T10:34:16.917Z,101100.34
2022-10-04T10:37:00.469Z,101101.19
2022-10-04T10:39:44.861Z,101098.38
2022-10-04T10:42:43.350Z,101100.19
2022-10-04T10:45:44.779Z,101092.63
2022-10-04T10:48:27.907Z,101106.91
2022-10-04T10:51:10.761Z,101078.47
2022-10-04T10:54:13.656Z,101100.22
2022-10-04T10:56:56.987Z,101083.97
2022-10-04T10:59:32.453Z,101107.81
2022-10-04T11:02:42.324Z,101099.78
2022-10-04T11:05:33.941Z,101093.06
2022-10-04T11:08:31.763Z,101094.16
2022-10-04T11:11:04.292Z,101087.44
2022-10-04T11:13:33.902Z,101095.19
2022-10-04T11:16:21.864Z,101071.56
2022-10-04T11:19:29.243Z,101067.94
2022-10-04T11:22:15.285Z,101081.78
2022-10-04T11:24:59.869Z,101076.78
2022-10-04T11:28:04.490Z,101077.44
2022-10-04T11:31:09.524Z,101087.44
2022-10-04T11:34:16.548Z,101078.31
2022-10-04T11:37:20.990Z,101074.38
2022-10-04T11:39:53.329Z,101074.72
2022-10-04T11:43:01.203Z,101071.75
2022-10-04T11:45:46.727Z,101067.13
2022-10-04T11:48:42.025Z,101058.25
2022-10-04T11:51:26.324Z,101033.00
2022-10-04T11:54:17.404Z,101049.09
2022-10-04T11:57:09.985Z,101038.16
2022-10-04T11:59:39.522Z,101035.78
2022-10-04T12:02:28.474Z,101033.34
2022-10-04T12:05:13.687Z,101034.91
2022-10-04T12:08:01.482Z,101023.13
2022-10-04T12:10:39.210Z,101027.84
2022-10-04T12:13:28.180Z,101019.66
2022-10-04T12:16:29.706Z,101024.13
2022-10-04T12:19:44.034Z,101019.25
2022-10-04T12:22:32.968Z,101011.97
2022-10-04T12:25:22.905Z,101010.38
2022-10-04T12:28:05.323Z,100999.72
2022-10-04T12:30:58.195Z,100998.00
2022-10-04T12:33:35.012Z,100993.34
2022-10-04T12:36:14.821Z,100993.31
2022-10-04T12:38:55.800Z,100989.91
2022-10-04T12:42:02.421Z,100994.97
2022-10-04T12:44:44.767Z,100973.84
2022-10-04T12:47:45.597Z,100992.50
2022-10-04T12:50:35.204Z,100966.03
2022-10-04T12:53:39.251Z,100991.34
2022-10-04T12:56:22.277Z,100990.94
2022-10-04T12:59:17.213Z,100978.69
2022-10-04T13:02:11.667Z,100980.50
2022-10-04T13:05:12.129Z,100980.72
2022-10-04T13:07:44.589Z,100975.56
2022-10-04T13:10:44.509Z,100970.22
2022-10-04T13:13:36.152Z,100970.66
2022-10-04T13:19:50.540Z,100973.44
2022-10-04T13:22:55.245Z,100973.34
2022-10-04T13:25:52.115Z,100966.81
2022-10-04T13:28:32.034Z,100956.88
2022-10-04T13:31:24.493Z,100965.78
2022-10-04T13:34:14.194Z,100951.38
2022-10-04T13:37:31.910Z,100951.44
2022-10-04T13:40:33.314Z,100965.50
2022-10-04T13:43:17.821Z,100961.16
2022-10-04T13:46:22.152Z,100957.19
2022-10-04T13:49:26.046Z,100948.31
2022-10-04T13:52:23.482Z,100952.19
2022-10-04T13:55:21.181Z,100938.47
2022-10-04T13:58:33.060Z,100939.84
2022-10-04T14:01:31.211Z,100929.25
2022-10-04T14:04:43.038Z,100924.09
2022-10-04T14:07:30.067Z,100929.34
2022-10-04T14:10:43.084Z,100925.63
2022-10-04T14:13:24.767Z,100917.47
2022-10-04T14:16:34.104Z,100935.28
2022-10-04T14:19:24.788Z,100933.13
2022-10-04T14:21:51.166Z,100938.69
2022-10-04T14:25:03.260Z,100927.88
2022-10-04T14:27:57.869Z,100917.91
2022-10-04T14:30:39.074Z,100897.72
2022-10-04T14:33:28.800Z,100898.59
2022-10-04T14:36:23.630Z,100909.59
2022-10-04T14:38:52.830Z,100891.00
2022-10-04T14:41:31.368Z,100904.50
2022-10-04T14:43:58.520Z,100882.31
2022-10-04T14:46:53.859Z,100895.78
2022-10-04T14:49:43.093Z,100880.47
2022-10-04T14:52:33.238Z,100887.69
2022-10-04T14:55:26.321Z,100894.44
2022-10-04T14:58:05.350Z,100880.94
2022-10-04T15:01:01.504Z,100879.91
2022-10-04T15:04:09.086Z,100877.88
2022-10-04T15:06:52.522Z,100871.19
2022-10-04T15:09:40.406Z,100867.50
2022-10-04T15:12:40.736Z,100845.03
2022-10-04T15:15:12.978Z,100876.41
2022-10-04T15:17:47.521Z,100885.84
2022-10-04T15:20:20.719Z,100892.78
2022-10-04T15:22:55.734Z,100881.84
2022-10-04T15:25:43.897Z,100883.09
2022-10-04T15:28:39.202Z,100884.50
2022-10-04T15:31:28.116Z,100877.72
2022-10-04T15:34:09.795Z,100874.28
2022-10-04T15:36:57.798Z,100866.66
2022-10-04T15:39:43.029Z,100872.75
2022-10-04T15:42:27.065Z,100869.56
2022-10-04T15:45:05.565Z,100862.59
2022-10-04T15:47:57.706Z,100856.88
2022-10-04T15:50:36.485Z,100826.66
2022-10-04T15:53:23.432Z,100852.91
2022-10-04T15:56:06.927Z,100839.50
2022-10-04T15:59:04.025Z,100851.59
2022-10-04T16:01:49.305Z,100855.34
2022-10-04T16:04:18.740Z,100836.38
2022-10-04T16:07:07.081Z,100848.16
2022-10-04T16:09:47.341Z,100849.25
2022-10-04T16:12:29.437Z,100844.97
2022-10-04T16:15:12.833Z,100838.19
2022-10-04T16:17:54.315Z,100834.84
2022-10-04T16:20:27.856Z,100841.47
2022-10-04T16:23:24.025Z,100832.31
2022-10-04T16:25:58.491Z,100826.78
2022-10-04T16:29:04.533Z,100825.94
2022-10-04T16:32:03.172Z,100818.31
2022-10-04T16:34:51.159Z,100819.66
2022-10-04T16:37:24.102Z,100823.59
2022-10-04T16:39:59.559Z,100810.25
2022-10-04T16:42:49.356Z,100832.13
2022-10-04T16:45:31.059Z,100810.19
2022-10-04T16:48:02.325Z,100833.09
2022-10-04T16:51:20.806Z,100840.53
2022-10-04T16:54:10.484Z,100833.84
2022-10-04T16:57:22.426Z,100837.19
2022-10-04T16:59:57.109Z,100830.81
2022-10-04T17:02:45.747Z,100843.84
2022-10-04T17:05:22.571Z,100843.56
2022-10-04T17:07:56.249Z,100855.66
2022-10-04T17:10:38.340Z,100857.03
2022-10-04T17:13:23.314Z,100861.03
2022-10-04T17:16:06.719Z,100861.75
2022-10-04T17:19:09.285Z,100866.41
2022-10-04T17:21:53.999Z,100860.66
2022-10-04T17:24:42.172Z,100862.16
2022-10-04T17:27:35.143Z,100865.25
2022-10-04T17:30:04.996Z,100868.28
2022-10-04T17:32:40.815Z,100862.69
2022-10-04T17:35:19.130Z,100876.78
2022-10-04T17:38:17.507Z,100878.03
2022-10-04T17:40:59.773Z,100874.84
2022-10-04T17:43:56.229Z,100878.88
2022-10-04T17:46:57.990Z,100878.34
2022-10-04T17:50:07.921Z,100851.13
2022-10-04T17:53:06.473Z,100887.13
2022-10-04T17:55:55.986Z,100896.44
2022-10-04T17:58:30.541Z,100896.00
2022-10-04T18:01:41.073Z,100877.41
2022-10-04T18:04:17.283Z,100886.19
2022-10-04T18:06:59.111Z,100883.91
2022-10-04T18:09:33.361Z,100868.06
2022-10-04T18:12:04.983Z,100896.22
2022-10-04T18:15:09.217Z,100899.31
2022-10-04T18:17:42.799Z,100895.31
2022-10-04T18:20:27.796Z,100893.06
2022-10-04T18:23:18.374Z,100889.94
2022-10-04T18:25:45.871Z,100894.56
2022-10-04T18:28:22.786Z,100894.78
2022-10-04T18:30:49.431Z,100895.97
2022-10-04T18:33:25.824Z,100882.13
2022-10-04T18:36:02.777Z,100885.00
2022-10-04T18:38:31.641Z,100892.28
2022-10-04T18:41:01.745Z,100893.44
2022-10-04T18:43:41.723Z,100900.78
2022-10-04T18:46:22.205Z,100890.63
2022-10-04T18:48:59.893Z,100896.19
2022-10-04T18:52:12.308Z,100898.28
2022-10-04T18:54:57.761Z,100890.63
2022-10-04T18:57:32.880Z,100899.75
2022-10-04T19:00:29.250Z,100897.38
2022-10-04T19:03:07.907Z,100908.06
2022-10-04T19:05:53.740Z,100916.22
2022-10-04T19:08:35.734Z,100909.38
2022-10-04T19:11:02.185Z,100914.97
2022-10-04T19:14:14.490Z,100898.09
2022-10-04T19:16:51.158Z,100916.56
2022-10-04T19:19:51.033Z,100931.78
2022-10-04T19:22:37.671Z,100929.34
2022-10-04T19:25:31.380Z,100937.44
2022-10-04T19:28:07.442Z,100937.53
2022-10-04T19:30:51.613Z,100927.16
2022-10-04T19:33:26.873Z,100915.97
2022-10-04T19:36:26.439Z,100932.56
2022-10-04T19:38:53.595Z,100936.94
2022-10-04T19:41:50.248Z,100933.78
2022-10-04T19:44:38.233Z,100937.28
2022-10-04T19:47:24.106Z,100930.38
2022-10-04T19:50:04.237Z,100929.81
2022-10-04T19:52:45.530Z,100928.88
2022-10-04T19:55:45.280Z,100938.63
2022-10-04T19:59:01.553Z,100938.78
2022-10-04T20:01:29.772Z,100934.47
2022-10-04T20:04:15.822Z,100938.09
2022-10-04T20:06:50.143Z,100939.97
2022-10-04T20:09:55.296Z,100931.13
2022-10-04T20:12:33.081Z,100932.97
2022-10-04T20:15:42.701Z,100926.97
2022-10-04T20:18:33.902Z,100933.22
2022-10-04T20:21:01.032Z,100941.25
2022-10-04T20:23:39.681Z,100947.59
2022-10-04T20:26:11.174Z,100955.75
2022-10-04T20:28:41.898Z,100950.81
2022-10-04T20:31:27.922Z,100949.16
2022-10-04T20:33:54.536Z,100949.34
2022-10-04T20:36:21.172Z,100953.06
2022-10-04T20:38:52.004Z,100947.97
2022-10-04T20:42:06.096Z,100950.84
2022-10-04T20:44:53.874Z,100952.06
2022-10-04T20:47:24.428Z,100951.44
2022-10-04T20:49:52.214Z,100954.22
2022-10-04T20:52:19.394Z,100927.72
2022-10-04T20:54:52.330Z,100952.75
2022-10-04T20:57:24.686Z,100954.59
2022-10-04T20:59:54.594Z,100938.22
2022-10-04T21:02:24.335Z,100954.84
2022-10-04T21:04:54.259Z,100955.00
2022-10-04T21:07:25.477Z,100944.63
2022-10-04T21:09:55.670Z,100950.91
2022-10-04T21:12:34.456Z,100950.31
2022-10-04T21:15:17.807Z,100935.56
2022-10-04T21:18:00.480Z,100936.19
2022-10-04T21:20:43.665Z,100937.09
2022-10-04T21:23:23.220Z,100936.31
2022-10-04T21:25:50.570Z,100935.44
2022-10-04T21:28:34.663Z,100927.72
2022-10-04T21:31:02.702Z,100914.75
2022-10-04T21:33:31.416Z,100926.88
2022-10-04T21:35:58.002Z,100921.69
2022-10-04T21:38:24.599Z,100919.09
2022-10-04T21:40:51.140Z,100915.84
2022-10-04T21:43:17.833Z,100918.44
2022-10-04T21:45:44.423Z,100919.34
2022-10-04T21:48:11.091Z,100915.78
2022-10-04T21:50:37.600Z,100919.28
2022-10-04T21:53:04.201Z,100914.97
2022-10-04T21:55:30.690Z,100913.19
2022-10-04T21:57:57.215Z,100889.91
2022-10-04T22:00:24.357Z,100907.03
2022-10-04T22:02:50.890Z,100882.75
2022-10-04T22:05:17.442Z,100880.22
2022-10-04T22:07:44.215Z,100892.22
2022-10-04T22:10:10.727Z,100883.78
2022-10-04T22:12:37.365Z,100911.50
2022-10-04T22:15:05.021Z,100916.06
2022-10-04T22:17:31.625Z,100906.53
2022-10-04T22:19:58.176Z,100909.19
2022-10-04T22:22:24.797Z,100901.53
2022-10-04T22:24:51.363Z,100902.44
2022-10-04T22:27:20.020Z,100893.69
2022-10-04T22:29:46.906Z,100900.13
2022-10-04T22:32:22.642Z,100880.38
2022-10-04T22:34:49.659Z,100901.09
2022-10-04T22:37:24.348Z,100894.97
2022-10-04T22:39:52.107Z,100886.06
2022-10-04T22:42:20.389Z,100842.03
2022-10-04T22:44:46.883Z,100888.81
2022-10-04T22:47:15.766Z,100883.69
2022-10-04T22:49:45.336Z,100873.22
2022-10-04T22:52:18.618Z,100876.13
2022-10-04T22:54:47.569Z,100873.38
2022-10-04T22:57:16.786Z,100881.41
2022-10-04T22:59:44.609Z,100892.94
2022-10-04T23:02:15.038Z,100856.75
2022-10-04T23:04:51.288Z,100884.66
2022-10-04T23:07:18.535Z,100890.84
2022-10-04T23:09:45.500Z,100891.78
2022-10-04T23:12:12.048Z,100885.81
2022-10-04T23:14:39.456Z,100882.47
2022-10-04T23:17:29.172Z,100890.34
2022-10-04T23:20:04.252Z,100859.25
2022-10-04T23:22:30.848Z,100885.41
2022-10-04T23:24:57.902Z,100886.09
2022-10-04T23:27:24.583Z,100894.34
2022-10-04T23:30:00.845Z,100883.91
2022-10-04T23:32:27.727Z,100892.25
2022-10-04T23:34:56.926Z,100876.19
2022-10-04T23:37:26.584Z,100893.78
2022-10-04T23:39:53.230Z,100901.72
2022-10-04T23:42:25.340Z,100902.69
2022-10-04T23:44:52.137Z,100907.16
2022-10-04T23:47:20.051Z,100916.06
2022-10-04T23:49:49.764Z,100908.38
2022-10-04T23:52:24.959Z,100890.94
2022-10-04T23:54:53.464Z,100910.16
2022-10-04T23:57:28.342Z,100879.63
2022-10-04T23:59:55.318Z,100904.69
